createdAt,value
2022-08-19T00:01:56.207Z,2.60
2022-08-19T00:04:27.144Z,2.75
2022-08-19T00:06:54.799Z,2.97
2022-08-19T00:09:23.792Z,3.20
2022-08-19T00:11:52.202Z,2.78
2022-08-19T00:14:21.810Z,2.85
2022-08-19T00:16:49.893Z,2.45
2022-08-19T00:19:17.754Z,2.90
2022-08-19T00:21:46.319Z,3.05
2022-08-19T00:24:15.996Z,2.80
2022-08-19T00:26:44.709Z,3.03
2022-08-19T00:29:14.551Z,2.78
2022-08-19T00:34:11.535Z,3.33
2022-08-19T00:36:39.643Z,3.00
2022-08-19T00:39:07.323Z,2.28
2022-08-19T00:41:34.753Z,2.83
2022-08-19T00:44:16.477Z,2.28
2022-08-19T00:46:57.716Z,2.70
2022-08-19T00:49:42.720Z,2.80
2022-08-19T00:52:34.920Z,2.88
2022-08-19T00:55:03.996Z,2.75
2022-08-19T00:57:47.355Z,2.58
2022-08-19T01:00:19.742Z,2.80
2022-08-19T01:02:48.550Z,2.53
2022-08-19T01:05:22.230Z,2.50
2022-08-19T01:07:50.413Z,2.53
2022-08-19T01:10:20.970Z,2.67
2022-08-19T01:12:51.464Z,2.05
2022-08-19T01:15:25.813Z,2.78
2022-08-19T01:17:54.454Z,3.38
2022-08-19T01:20:24.425Z,2.92
2022-08-19T01:22:54.700Z,2.30
2022-08-19T01:25:29.435Z,2.55
2022-08-19T01:28:06.423Z,2.58
2022-08-19T01:30:39.198Z,2.50
2022-08-19T01:33:12.327Z,2.45
2022-08-19T01:35:43.209Z,2.17
2022-08-19T01:38:23.395Z,2.47
2022-08-19T01:40:52.529Z,3.00
2022-08-19T01:43:20.450Z,2.63
2022-08-19T01:45:47.960Z,2.42
2022-08-19T01:48:16.107Z,3.28
2022-08-19T01:50:44.628Z,3.00
2022-08-19T01:53:13.233Z,2.83
2022-08-19T01:55:43.852Z,3.15
2022-08-19T01:58:16.420Z,2.70
2022-08-19T02:00:44.924Z,2.40
2022-08-19T02:03:13.888Z,2.58
2022-08-19T02:05:44.012Z,2.80
2022-08-19T02:08:12.352Z,3.05
2022-08-19T02:10:44.117Z,2.38
2022-08-19T02:13:14.521Z,1.98
2022-08-19T02:15:44.581Z,2.60
2022-08-19T02:18:12.169Z,2.30
2022-08-19T02:20:43.825Z,3.00
2022-08-19T02:23:13.787Z,3.33
2022-08-19T02:25:45.388Z,2.72
2022-08-19T02:28:17.931Z,3.28
2022-08-19T02:30:47.180Z,3.03
2022-08-19T02:33:14.753Z,3.55
2022-08-19T02:35:48.841Z,2.60
2022-08-19T02:38:26.878Z,2.13
2022-08-19T02:41:02.097Z,3.47
2022-08-19T02:43:33.711Z,2.83
2022-08-19T02:46:02.745Z,2.92
2022-08-19T02:48:30.389Z,3.00
2022-08-19T02:50:57.969Z,3.40
2022-08-19T02:53:28.214Z,2.72
2022-08-19T02:55:55.600Z,2.67
2022-08-19T02:58:25.016Z,2.40
2022-08-19T03:00:57.255Z,2.90
2022-08-19T03:03:24.952Z,2.72
2022-08-19T03:05:56.432Z,2.67
2022-08-19T03:08:26.672Z,2.63
2022-08-19T03:10:54.454Z,2.28
2022-08-19T03:13:22.058Z,2.90
2022-08-19T03:15:50.073Z,2.97
2022-08-19T03:18:18.436Z,2.10
2022-08-19T03:20:48.216Z,2.40
2022-08-19T03:23:17.286Z,2.85
2022-08-19T03:25:47.554Z,2.55
2022-08-19T03:28:30.095Z,2.45
2022-08-19T03:31:02.832Z,2.47
2022-08-19T03:33:35.078Z,2.95
2022-08-19T03:36:10.866Z,2.45
2022-08-19T03:38:41.390Z,2.33
2022-08-19T03:41:11.570Z,2.55
2022-08-19T03:43:40.926Z,2.80
2022-08-19T03:46:13.001Z,2.47
2022-08-19T03:48:42.436Z,2.67
2022-08-19T03:51:16.443Z,2.60
2022-08-19T03:53:44.022Z,2.72
2022-08-19T03:56:11.778Z,2.58
2022-08-19T03:58:40.821Z,3.00
2022-08-19T04:01:12.347Z,3.00
2022-08-19T04:03:43.124Z,2.60
2022-08-19T04:06:22.530Z,2.58
2022-08-19T04:08:51.925Z,2.25
2022-08-19T04:11:24.360Z,2.40
2022-08-19T04:14:14.268Z,2.65
2022-08-19T04:16:41.793Z,2.65
2022-08-19T04:19:09.540Z,1.95
2022-08-19T04:21:39.739Z,2.60
2022-08-19T04:24:07.541Z,2.70
2022-08-19T04:26:38.065Z,2.00
2022-08-19T04:31:41.999Z,3.15
2022-08-19T04:34:13.618Z,2.80
2022-08-19T04:36:42.303Z,2.97
2022-08-19T04:39:14.996Z,3.03
2022-08-19T04:42:01.277Z,2.70
2022-08-19T04:44:33.095Z,2.85
2022-08-19T04:47:01.660Z,2.47
2022-08-19T04:49:29.066Z,3.00
2022-08-19T04:51:56.877Z,2.75
2022-08-19T04:54:37.310Z,2.67
2022-08-19T04:57:11.403Z,3.08
2022-08-19T04:59:40.707Z,2.70
2022-08-19T05:02:09.905Z,2.92
2022-08-19T05:04:40.335Z,3.15
2022-08-19T05:07:10.902Z,3.30
2022-08-19T05:09:58.510Z,2.97
2022-08-19T05:12:29.394Z,2.58
2022-08-19T05:14:58.064Z,3.00
2022-08-19T05:17:28.391Z,3.15
2022-08-19T05:20:15.292Z,2.80
2022-08-19T05:22:44.352Z,3.50
2022-08-19T05:25:18.563Z,2.85
2022-08-19T05:27:46.187Z,2.78
2022-08-19T05:30:13.811Z,2.72
2022-08-19T05:32:41.314Z,3.65
2022-08-19T05:35:09.384Z,3.28
2022-08-19T05:37:37.115Z,3.78
2022-08-19T05:40:05.243Z,2.63
2022-08-19T05:42:32.792Z,3.35
2022-08-19T05:45:00.609Z,3.50
2022-08-19T05:47:28.472Z,2.67
2022-08-19T05:49:56.223Z,2.95
2022-08-19T05:52:25.787Z,2.53
2022-08-19T05:54:56.327Z,3.30
2022-08-19T05:57:25.072Z,1.80
2022-08-19T05:59:58.600Z,2.78
2022-08-19T06:02:27.967Z,2.22
2022-08-19T06:04:55.737Z,3.17
2022-08-19T06:07:23.105Z,3.47
2022-08-19T06:09:59.159Z,2.55
2022-08-19T06:12:32.635Z,3.20
2022-08-19T06:15:02.109Z,2.30
2022-08-19T06:17:32.859Z,2.67
2022-08-19T06:20:06.026Z,3.10
2022-08-19T06:22:38.166Z,2.85
2022-08-19T06:25:06.432Z,2.70
2022-08-19T06:27:37.841Z,3.08
2022-08-19T06:30:07.870Z,3.00
2022-08-19T06:32:38.804Z,2.50
2022-08-19T06:35:09.624Z,2.42
2022-08-19T06:37:40.796Z,2.25
2022-08-19T06:40:12.264Z,2.08
2022-08-19T06:42:40.228Z,2.80
2022-08-19T06:45:17.066Z,2.15
2022-08-19T06:47:47.118Z,2.25
2022-08-19T06:50:15.705Z,2.47
2022-08-19T06:52:43.486Z,2.95
2022-08-19T06:55:10.841Z,2.53
2022-08-19T06:57:39.159Z,2.33
2022-08-19T07:00:12.951Z,3.17
2022-08-19T07:02:42.617Z,2.00
2022-08-19T07:05:11.029Z,1.80
2022-08-19T07:07:38.334Z,2.42
2022-08-19T07:10:07.815Z,3.03
2022-08-19T07:12:36.138Z,2.55
2022-08-19T07:15:12.231Z,2.83
2022-08-19T07:17:40.396Z,2.83
2022-08-19T07:20:11.014Z,3.00
2022-08-19T07:22:40.341Z,2.63
2022-08-19T07:25:11.085Z,2.15
2022-08-19T07:27:39.524Z,1.20
2022-08-19T07:30:07.875Z,1.42
2022-08-19T07:32:39.453Z,2.75
2022-08-19T07:35:07.371Z,0.88
2022-08-19T07:37:38.204Z,2.05
2022-08-19T07:40:07.906Z,1.45
2022-08-19T07:45:07.368Z,0.28
2022-08-19T07:47:49.106Z,0.30
2022-08-19T07:50:19.634Z,0.85
2022-08-19T07:52:48.842Z,1.30
2022-08-19T07:55:40.045Z,0.28
2022-08-19T07:58:07.031Z,0.80
2022-08-19T08:00:36.919Z,0.70
2022-08-19T08:03:04.771Z,1.25
2022-08-19T08:05:51.390Z,1.38
2022-08-19T08:08:36.977Z,1.65
2022-08-19T08:11:07.764Z,0.50
2022-08-19T08:13:36.444Z,0.60
2022-08-19T08:16:10.424Z,1.52
2022-08-19T08:18:43.381Z,0.60
2022-08-19T08:21:20.532Z,1.00
2022-08-19T08:26:17.110Z,0.70
2022-08-19T08:28:49.499Z,0.90
2022-08-19T08:31:17.409Z,0.70
2022-08-19T08:33:44.967Z,2.08
2022-08-19T08:36:14.740Z,1.10
2022-08-19T08:38:43.502Z,0.82
2022-08-19T08:41:42.923Z,0.75
2022-08-19T08:44:20.112Z,0.32
2022-08-19T08:46:59.466Z,1.70
2022-08-19T08:49:51.304Z,0.68
2022-08-19T08:52:36.489Z,0.95
2022-08-19T08:55:12.397Z,1.20
2022-08-19T09:00:17.533Z,0.60
2022-08-19T09:02:50.333Z,1.42
2022-08-19T09:05:22.354Z,1.30
2022-08-19T09:08:08.153Z,1.35
2022-08-19T09:10:45.062Z,1.65
2022-08-19T09:13:37.396Z,1.13
2022-08-19T09:16:28.352Z,0.85
2022-08-19T09:19:02.682Z,2.13
2022-08-19T09:21:34.302Z,1.63
2022-08-19T09:24:03.701Z,1.65
2022-08-19T09:26:48.494Z,1.60
2022-08-19T09:29:23.026Z,1.50
2022-08-19T09:31:51.195Z,2.40
2022-08-19T09:34:22.099Z,2.05
2022-08-19T09:36:54.546Z,1.60
2022-08-19T09:39:25.416Z,3.08
2022-08-19T09:42:04.778Z,3.95
2022-08-19T09:44:34.660Z,2.55
2022-08-19T09:47:02.927Z,0.57
2022-08-19T09:49:30.669Z,2.40
2022-08-19T09:51:59.589Z,1.40
2022-08-19T09:54:29.672Z,2.08
2022-08-19T09:56:59.876Z,0.95
2022-08-19T09:59:27.952Z,2.05
2022-08-19T10:01:55.512Z,1.73
2022-08-19T10:04:50.634Z,1.40
2022-08-19T10:07:20.297Z,1.50
2022-08-19T10:12:20.116Z,1.30
2022-08-19T10:14:47.605Z,0.98
2022-08-19T10:17:20.818Z,0.80
2022-08-19T10:19:55.543Z,0.70
2022-08-19T10:22:25.454Z,0.75
2022-08-19T10:24:53.876Z,0.65
2022-08-19T10:27:21.167Z,1.15
2022-08-19T10:29:49.035Z,1.17
2022-08-19T10:32:19.190Z,0.75
2022-08-19T10:35:09.034Z,0.85
2022-08-19T10:37:43.480Z,0.85
2022-08-19T10:40:25.272Z,0.85
2022-08-19T10:42:56.515Z,1.10
2022-08-19T10:45:26.106Z,1.20
2022-08-19T10:47:55.852Z,1.45
2022-08-19T10:50:42.855Z,1.05
2022-08-19T10:53:10.794Z,0.80
2022-08-19T10:55:57.399Z,0.90
2022-08-19T10:58:28.042Z,0.80
2022-08-19T11:00:57.824Z,1.17
2022-08-19T11:03:25.937Z,1.30
2022-08-19T11:06:04.808Z,0.55
2022-08-19T11:08:33.347Z,0.40
2022-08-19T11:11:02.231Z,0.80
2022-08-19T11:13:31.034Z,1.17
2022-08-19T11:16:07.994Z,0.88
2022-08-19T11:19:02.665Z,0.70
2022-08-19T11:21:32.878Z,1.00
2022-08-19T11:24:04.287Z,0.80
2022-08-19T11:26:33.161Z,0.43
2022-08-19T11:29:01.462Z,0.57
2022-08-19T11:31:34.777Z,0.60
2022-08-19T11:34:04.448Z,0.90
2022-08-19T11:36:34.375Z,0.90
2022-08-19T11:39:02.807Z,0.50
2022-08-19T11:41:33.046Z,1.02
2022-08-19T11:44:00.569Z,0.82
2022-08-19T11:46:31.104Z,0.75
2022-08-19T11:49:00.481Z,0.90
2022-08-19T11:51:29.350Z,1.50
2022-08-19T11:53:58.118Z,0.68
2022-08-19T11:56:26.120Z,1.20
2022-08-19T11:58:55.298Z,1.00
2022-08-19T12:01:24.770Z,1.10
2022-08-19T12:06:29.701Z,0.82
2022-08-19T12:08:58.890Z,1.02
2022-08-19T12:11:26.856Z,0.73
2022-08-19T12:13:54.701Z,1.02
2022-08-19T12:16:27.813Z,1.35
2022-08-19T12:19:00.082Z,1.23
2022-08-19T12:21:31.543Z,0.30
2022-08-19T12:24:02.799Z,0.88
2022-08-19T12:26:32.529Z,1.50
2022-08-19T12:29:00.708Z,0.90
2022-08-19T12:31:31.657Z,1.40
2022-08-19T12:33:59.842Z,1.10
2022-08-19T12:36:27.210Z,1.45
2022-08-19T12:38:56.782Z,1.48
2022-08-19T12:43:54.307Z,1.02
2022-08-19T12:46:23.760Z,1.08
2022-08-19T12:48:56.220Z,0.95
2022-08-19T12:51:23.928Z,0.85
2022-08-19T12:53:51.411Z,0.95
2022-08-19T12:56:23.049Z,0.70
2022-08-19T12:58:53.058Z,0.88
2022-08-19T13:01:23.168Z,1.15
2022-08-19T13:03:53.530Z,0.65
2022-08-19T13:06:23.863Z,0.73
2022-08-19T13:08:51.466Z,0.63
2022-08-19T13:11:21.005Z,0.95
2022-08-19T13:18:48.340Z,1.25
2022-08-19T13:21:16.266Z,0.57
2022-08-19T13:23:43.672Z,1.05
2022-08-19T13:26:12.866Z,1.02
2022-08-19T13:29:00.356Z,0.82
2022-08-19T13:31:47.881Z,0.88
2022-08-19T13:34:17.289Z,1.08
2022-08-19T13:36:44.793Z,1.15
2022-08-19T13:39:15.015Z,1.70
2022-08-19T13:41:49.080Z,0.98
2022-08-19T13:44:19.234Z,1.33
2022-08-19T13:46:49.640Z,1.15
2022-08-19T13:49:24.215Z,1.13
2022-08-19T13:51:54.999Z,1.02
2022-08-19T13:54:22.764Z,1.25
2022-08-19T13:56:50.407Z,1.45
2022-08-19T13:59:18.788Z,0.88
2022-08-19T14:01:51.110Z,1.40
2022-08-19T14:04:18.921Z,1.33
2022-08-19T14:06:46.483Z,1.20
2022-08-19T14:09:14.002Z,0.35
2022-08-19T14:11:46.650Z,1.38
2022-08-19T14:14:16.454Z,0.90
2022-08-19T14:16:43.918Z,0.95
2022-08-19T14:19:11.515Z,1.70
2022-08-19T14:21:41.647Z,2.30
2022-08-19T14:24:09.851Z,0.95
2022-08-19T14:26:37.564Z,0.95
2022-08-19T14:29:05.157Z,0.60
2022-08-19T14:31:32.594Z,1.42
2022-08-19T14:34:00.447Z,1.45
2022-08-19T14:36:27.999Z,1.23
2022-08-19T14:38:55.722Z,0.90
2022-08-19T14:41:24.636Z,1.67
2022-08-19T14:43:54.940Z,0.85
2022-08-19T14:46:29.594Z,1.65
2022-08-19T14:48:59.983Z,1.33
2022-08-19T14:51:27.978Z,0.50
2022-08-19T14:53:56.127Z,1.20
2022-08-19T14:56:27.262Z,1.40
2022-08-19T14:59:00.170Z,1.70
2022-08-19T15:01:29.073Z,1.20
2022-08-19T15:03:56.958Z,1.17
2022-08-19T15:06:25.002Z,1.17
2022-08-19T15:08:52.860Z,0.82
2022-08-19T15:11:22.228Z,1.13
2022-08-19T15:13:49.870Z,1.05
2022-08-19T15:16:18.788Z,1.67
2022-08-19T15:18:48.010Z,1.27
2022-08-19T15:21:27.151Z,1.30
2022-08-19T15:23:56.690Z,2.05
2022-08-19T15:26:25.755Z,1.30
2022-08-19T15:28:53.287Z,1.73
2022-08-19T15:31:28.096Z,1.80
2022-08-19T15:33:58.720Z,1.67
2022-08-19T15:36:27.281Z,1.52
2022-08-19T15:38:56.133Z,0.28
2022-08-19T15:41:29.117Z,1.45
2022-08-19T15:43:59.847Z,1.75
2022-08-19T15:46:31.076Z,1.92
2022-08-19T15:49:00.000Z,1.40
2022-08-19T15:51:30.568Z,1.65
2022-08-19T15:53:58.931Z,1.27
2022-08-19T15:56:27.529Z,1.52
2022-08-19T15:59:17.485Z,0.95
2022-08-19T16:02:04.043Z,2.25
2022-08-19T16:04:49.746Z,1.70
2022-08-19T16:07:23.341Z,2.00
2022-08-19T16:09:50.994Z,0.98
2022-08-19T16:12:19.078Z,1.10
2022-08-19T16:14:48.734Z,1.70
2022-08-19T16:17:16.889Z,0.80
2022-08-19T16:19:44.524Z,2.30
2022-08-19T16:22:12.152Z,0.75
2022-08-19T16:24:40.079Z,1.25
2022-08-19T16:27:07.761Z,1.00
2022-08-19T16:29:39.201Z,0.35
2022-08-19T16:32:10.258Z,1.08
2022-08-19T16:34:40.173Z,1.17
2022-08-19T16:37:10.494Z,1.38
2022-08-19T16:39:38.753Z,0.88
2022-08-19T16:42:08.602Z,0.98
2022-08-19T16:44:40.843Z,0.50
2022-08-19T16:47:11.942Z,1.52
2022-08-19T16:49:53.656Z,0.70
2022-08-19T16:52:26.349Z,1.48
2022-08-19T16:54:54.415Z,1.13
2022-08-19T16:57:23.920Z,1.42
2022-08-19T17:02:23.158Z,1.20
2022-08-19T17:04:57.961Z,1.40
2022-08-19T17:07:27.967Z,1.00
2022-08-19T17:09:56.418Z,1.17
2022-08-19T17:12:31.697Z,1.23
2022-08-19T17:15:01.861Z,1.90
2022-08-19T17:17:30.170Z,2.58
2022-08-19T17:19:59.372Z,1.45
2022-08-19T17:22:27.203Z,1.75
2022-08-19T17:24:56.355Z,1.90
2022-08-19T17:27:26.960Z,1.27
2022-08-19T17:30:00.023Z,1.67
2022-08-19T17:32:27.971Z,0.38
2022-08-19T17:34:57.257Z,0.98
2022-08-19T17:37:25.011Z,1.55
2022-08-19T17:39:52.759Z,1.27
2022-08-19T17:42:20.452Z,1.38
2022-08-19T17:44:50.670Z,1.50
2022-08-19T17:47:19.609Z,1.15
2022-08-19T17:49:47.569Z,1.33
2022-08-19T17:52:18.339Z,1.25
2022-08-19T17:54:46.959Z,1.08
2022-08-19T17:57:14.918Z,0.73
2022-08-19T17:59:42.332Z,0.88
2022-08-19T18:02:11.836Z,0.82
2022-08-19T18:04:39.315Z,1.45
2022-08-19T18:07:06.869Z,0.47
2022-08-19T18:09:42.407Z,1.02
2022-08-19T18:12:14.216Z,1.10
2022-08-19T18:14:42.436Z,1.80
2022-08-19T18:17:16.645Z,0.60
2022-08-19T18:19:45.183Z,0.90
2022-08-19T18:22:22.670Z,1.23
2022-08-19T18:24:50.432Z,0.73
2022-08-19T18:27:18.143Z,0.90
2022-08-19T18:29:45.698Z,1.27
2022-08-19T18:32:23.592Z,0.60
2022-08-19T18:34:52.572Z,1.60
2022-08-19T18:37:20.638Z,0.40
2022-08-19T18:40:06.592Z,0.73
2022-08-19T18:42:52.647Z,0.70
2022-08-19T18:45:38.880Z,0.93
2022-08-19T18:48:29.822Z,1.42
2022-08-19T18:50:59.177Z,1.40
2022-08-19T18:53:34.715Z,0.80
2022-08-19T18:56:02.559Z,1.30
2022-08-19T18:58:33.948Z,1.77
2022-08-19T19:01:13.176Z,2.00
2022-08-19T19:03:53.434Z,2.15
2022-08-19T19:06:26.062Z,1.83
2022-08-19T19:08:55.171Z,2.00
2022-08-19T19:11:31.438Z,2.35
2022-08-19T19:14:02.520Z,1.60
2022-08-19T19:16:33.374Z,1.70
2022-08-19T19:19:01.215Z,1.65
2022-08-19T19:21:31.944Z,1.58
2022-08-19T19:24:02.093Z,1.65
2022-08-19T19:26:29.959Z,1.70
2022-08-19T19:28:57.669Z,1.90
2022-08-19T19:31:27.033Z,1.63
2022-08-19T19:33:57.583Z,1.63
2022-08-19T19:36:25.054Z,1.83
2022-08-19T19:38:53.277Z,1.25
2022-08-19T19:41:26.466Z,1.40
2022-08-19T19:44:16.402Z,1.20
2022-08-19T19:46:44.158Z,2.10
2022-08-19T19:49:12.657Z,1.60
2022-08-19T19:51:41.163Z,2.15
2022-08-19T19:54:10.274Z,1.30
2022-08-19T19:56:37.951Z,1.60
2022-08-19T19:59:06.147Z,1.45
2022-08-19T20:01:33.869Z,1.10
2022-08-19T20:04:05.204Z,1.60
2022-08-19T20:06:34.691Z,2.03
2022-08-19T20:09:08.172Z,1.45
2022-08-19T20:11:42.496Z,1.48
2022-08-19T20:14:14.990Z,1.63
2022-08-19T20:16:46.884Z,1.45
2022-08-19T20:19:19.567Z,1.38
2022-08-19T20:21:51.157Z,1.50
2022-08-19T20:24:22.973Z,1.52
2022-08-19T20:26:53.430Z,1.42
2022-08-19T20:29:38.737Z,1.55
2022-08-19T20:32:10.688Z,1.15
2022-08-19T20:34:38.638Z,1.50
2022-08-19T20:37:09.489Z,1.35
2022-08-19T20:39:37.474Z,1.10
2022-08-19T20:42:05.639Z,1.30
2022-08-19T20:44:33.379Z,1.70
2022-08-19T20:47:03.587Z,2.00
2022-08-19T20:49:31.867Z,1.90
2022-08-19T20:52:04.859Z,1.27
2022-08-19T20:54:35.281Z,2.15
2022-08-19T20:57:03.899Z,2.17
2022-08-19T20:59:32.668Z,1.85
2022-08-19T21:02:00.221Z,1.67
2022-08-19T21:04:27.736Z,1.77
2022-08-19T21:06:55.394Z,2.33
2022-08-19T21:09:22.814Z,1.60
2022-08-19T21:11:53.746Z,2.20
2022-08-19T21:14:21.484Z,1.92
2022-08-19T21:16:50.518Z,2.05
2022-08-19T21:19:22.047Z,2.13
2022-08-19T21:21:51.376Z,2.45
2022-08-19T21:24:19.056Z,3.10
2022-08-19T21:26:51.095Z,2.42
2022-08-19T21:29:18.963Z,3.05
2022-08-19T21:31:46.409Z,2.47
2022-08-19T21:34:14.125Z,3.03
2022-08-19T21:36:41.771Z,2.88
2022-08-19T21:39:09.226Z,2.67
2022-08-19T21:41:37.486Z,2.28
2022-08-19T21:44:06.986Z,2.08
2022-08-19T21:46:34.673Z,2.22
2022-08-19T21:49:02.100Z,2.10
2022-08-19T21:51:29.618Z,2.38
2022-08-19T21:53:57.518Z,2.42
2022-08-19T21:56:25.023Z,2.47
2022-08-19T21:58:52.823Z,2.22
2022-08-19T22:01:20.560Z,2.00
2022-08-19T22:03:51.153Z,2.33
2022-08-19T22:06:19.942Z,1.73
2022-08-19T22:08:47.863Z,2.30
2022-08-19T22:11:15.245Z,2.33
2022-08-19T22:13:42.913Z,2.33
2022-08-19T22:16:10.810Z,1.92
2022-08-19T22:18:38.130Z,2.60
2022-08-19T22:21:11.294Z,2.00
2022-08-19T22:23:39.746Z,2.22
2022-08-19T22:26:07.333Z,2.50
2022-08-19T22:28:37.476Z,2.17
2022-08-19T22:31:07.240Z,2.58
2022-08-19T22:33:37.521Z,2.60
2022-08-19T22:36:07.791Z,2.15
2022-08-19T22:38:36.053Z,1.80
2022-08-19T22:41:03.737Z,2.47
2022-08-19T22:43:32.192Z,2.28
2022-08-19T22:46:00.316Z,2.33
2022-08-19T22:48:30.234Z,2.15
2022-08-19T22:51:16.529Z,2.50
2022-08-19T22:53:46.786Z,2.25
2022-08-19T22:56:17.362Z,2.40
2022-08-19T22:58:46.336Z,2.25
2022-08-19T23:01:29.871Z,2.58
2022-08-19T23:03:59.224Z,2.30
2022-08-19T23:06:33.330Z,2.00
2022-08-19T23:09:04.587Z,2.65
2022-08-19T23:11:35.719Z,2.53
2022-08-19T23:14:09.580Z,2.03
2022-08-19T23:16:37.033Z,2.13
2022-08-19T23:19:04.852Z,2.83
2022-08-19T23:21:36.223Z,2.60
2022-08-19T23:24:07.064Z,2.13
2022-08-19T23:26:36.024Z,2.10
2022-08-19T23:29:24.483Z,2.30
2022-08-19T23:31:52.059Z,2.03
2022-08-19T23:34:19.522Z,1.92
2022-08-19T23:36:47.213Z,2.45
2022-08-19T23:39:14.920Z,2.05
2022-08-19T23:41:42.346Z,2.67
2022-08-19T23:44:14.687Z,2.13
2022-08-19T23:46:55.073Z,2.38
2022-08-19T23:49:26.294Z,1.88
2022-08-19T23:51:55.257Z,2.40
2022-08-19T23:54:27.585Z,2.10
2022-08-19T23:57:13.269Z,2.58
2022-08-19T23:59:45.267Z,1.80
